Time;durP1;ratioP1;P1;durP2;ratioP2;P2;SDS_P1;SDS_P2;PMS_P1;PMS_P2;Temp;Humidity;BMP_temperature;BMP_pressure;BME280_temperature;BME280_humidity;BME280_pressure;Samples;Min_cycle;Max_cycle;Signal;HPM_P1;HPM_P2
2023/08/11 00:01:31;;;;;;;8.27;4.80;;;13.70;99.90;;;;;;4953830;28;20050;-64
2023/08/11 00:03:58;;;;;;;7.35;4.32;;;13.70;99.90;;;;;;4952033;29;20484;-64
2023/08/11 00:06:25;;;;;;;7.60;4.80;;;13.70;99.90;;;;;;4953583;29;20043;-64
2023/08/11 00:09:01;;;;;;;;;;;13.70;99.90;;;;;;4950497;28;20045;-63
2023/08/11 00:11:27;;;;;;;7.68;4.18;;;13.70;99.90;;;;;;4948730;28;19922;-64
2023/08/11 00:13:54;;;;;;;9.88;4.20;;;13.70;99.90;;;;;;4952204;29;20520;-64
2023/08/11 00:16:21;;;;;;;6.57;4.18;;;13.70;99.90;;;;;;4953242;28;20043;-63
2023/08/11 00:18:48;;;;;;;6.70;4.32;;;13.70;99.90;;;;;;4953506;28;20075;-64
2023/08/11 00:21:14;;;;;;;11.13;4.75;;;13.70;99.90;;;;;;4953153;28;20051;-63
2023/08/11 00:23:43;;;;;;;12.45;4.93;;;13.60;99.90;;;;;;4942844;29;20520;-64
2023/08/11 00:26:10;;;;;;;8.68;4.32;;;13.60;99.90;;;;;;4951675;28;20047;-64
2023/08/11 00:28:38;;;;;;;9.27;3.90;;;13.60;99.90;;;;;;4956028;28;20039;-64
2023/08/11 00:31:05;;;;;;;7.85;4.82;;;13.50;99.90;;;;;;4971325;28;20062;-64
2023/08/11 00:33:33;;;;;;;9.15;4.90;;;13.60;99.90;;;;;;4956097;28;20382;-63
2023/08/11 00:36:02;;;;;;;7.10;4.72;;;13.50;99.90;;;;;;4971434;28;20055;-64
2023/08/11 00:38:37;;;;;;;8.82;5.30;;;13.50;99.90;;;;;;4956924;28;20035;-63
2023/08/11 00:41:05;;;;;;;9.75;4.97;;;13.40;99.90;;;;;;4962166;28;20055;-63
2023/08/11 00:43:32;;;;;;;8.48;4.55;;;13.40;99.90;;;;;;4987371;23;20044;-64
2023/08/11 00:46:07;;;;;;;7.25;4.55;;;13.30;99.90;;;;;;4951324;29;20101;-64
2023/08/11 00:48:34;;;;;;;9.98;4.80;;;13.30;99.90;;;;;;4955316;29;20504;-64
2023/08/11 00:51:02;;;;;;;6.40;5.00;;;13.20;99.90;;;;;;4970150;28;20185;-64
2023/08/11 00:53:29;;;;;;;10.30;5.63;;;13.20;99.90;;;;;;4969726;28;20053;-64
2023/08/11 00:55:56;;;;;;;8.85;5.57;;;13.10;99.90;;;;;;4990554;28;20583;-64
2023/08/11 00:58:23;;;;;;;7.43;4.93;;;13.10;99.90;;;;;;4982887;28;20039;-64
2023/08/11 01:00:51;;;;;;;7.00;4.78;;;13.10;99.90;;;;;;4986549;28;20043;-64
2023/08/11 01:03:18;;;;;;;7.53;5.20;;;13.00;99.90;;;;;;4972053;28;20046;-64
2023/08/11 01:05:52;;;;;;;5.85;4.50;;;13.00;99.90;;;;;;4974492;28;20121;-64
2023/08/11 01:08:34;;;;;;;7.95;4.80;;;12.90;99.90;;;;;;4973501;28;20058;-63
2023/08/11 01:11:17;;;;;;;9.02;5.55;;;12.90;99.90;;;;;;4975706;28;20072;-64
2023/08/11 01:13:52;;;;;;;10.95;5.63;;;13.00;99.90;;;;;;4973565;28;20117;-64
2023/08/11 01:16:21;;;;;;;9.38;5.00;;;12.90;99.90;;;;;;4974279;28;20051;-64
2023/08/11 01:18:50;;;;;;;7.80;5.15;;;12.90;99.90;;;;;;4973067;28;20047;-63
2023/08/11 01:21:20;;;;;;;9.73;5.32;;;12.80;99.90;;;;;;4974672;28;20055;-64
2023/08/11 01:23:47;;;;;;;8.95;5.30;;;12.80;99.90;;;;;;4967981;28;20035;-64
2023/08/11 01:26:14;;;;;;;6.57;4.60;;;12.80;99.90;;;;;;4971602;28;20552;-64
2023/08/11 01:28:42;;;;;;;;;;;12.80;99.90;;;;;;4971290;28;20058;-64
2023/08/11 01:31:10;;;;;;;6.07;4.65;;;12.70;99.90;;;;;;4971530;28;20335;-63
2023/08/11 01:33:38;;;;;;;8.25;5.68;;;12.70;99.90;;;;;;4969142;28;20035;-63
2023/08/11 01:36:05;;;;;;;6.78;4.82;;;12.70;99.90;;;;;;4970923;28;20059;-63
2023/08/11 01:38:32;;;;;;;14.13;4.65;;;12.60;99.90;;;;;;4982592;28;20058;-64
2023/08/11 01:40:59;;;;;;;14.52;6.00;;;12.60;99.90;;;;;;4989966;28;20053;-63
2023/08/11 01:43:28;;;;;;;8.80;5.60;;;12.50;99.90;;;;;;4972503;28;20038;-63
2023/08/11 01:45:56;;;;;;;6.93;4.90;;;12.50;99.90;;;;;;4975204;28;20042;-64
2023/08/11 01:48:25;;;;;;;6.35;5.15;;;12.50;99.90;;;;;;4974126;28;20046;-63
2023/08/11 01:50:52;;;;;;;9.50;5.32;;;12.50;99.90;;;;;;4972353;28;20207;-62
2023/08/11 01:53:19;;;;;;;10.98;5.38;;;12.50;99.90;;;;;;4978918;23;20053;-64
2023/08/11 01:55:47;;;;;;;8.15;5.28;;;12.50;99.90;;;;;;4989794;28;20042;-64
2023/08/11 01:58:15;;;;;;;7.55;5.07;;;12.50;99.90;;;;;;4971326;28;20043;-64
2023/08/11 02:00:41;;;;;;;;;;;12.40;99.90;;;;;;4972959;28;20133;-64
2023/08/11 02:03:08;;;;;;;9.02;5.07;;;12.40;99.90;;;;;;4992185;23;19933;-63
2023/08/11 02:05:35;;;;;;;10.18;5.05;;;12.40;99.90;;;;;;4934558;29;20067;-64
2023/08/11 02:08:02;;;;;;;9.68;4.55;;;12.30;99.90;;;;;;4935419;29;20050;-63
2023/08/11 02:10:29;;;;;;;;;;;12.30;99.90;;;;;;4935129;29;20690;-63
2023/08/11 02:12:56;;;;;;;12.50;5.70;;;12.40;99.90;;;;;;4935048;29;19929;-63
2023/08/11 02:15:23;;;;;;;10.27;4.90;;;12.40;99.90;;;;;;4950261;29;20561;-64
2023/08/11 02:17:50;;;;;;;10.40;5.18;;;12.50;99.90;;;;;;4935062;29;20587;-64
2023/08/11 02:20:22;;;;;;;10.98;5.35;;;12.50;99.90;;;;;;4935938;29;20044;-64
2023/08/11 02:22:52;;;;;;;9.07;5.32;;;12.50;99.90;;;;;;4950156;28;20039;-64
2023/08/11 02:25:20;;;;;;;9.60;5.00;;;12.50;99.90;;;;;;4935592;29;20044;-64
2023/08/11 02:27:52;;;;;;;;;;;12.50;99.90;;;;;;4929951;29;20553;-64
2023/08/11 02:30:21;;;;;;;8.20;4.72;;;12.40;99.90;;;;;;4934261;29;20017;-64
2023/08/11 02:32:50;;;;;;;5.78;4.70;;;12.40;99.90;;;;;;4935529;29;20036;-64
2023/08/11 02:35:17;;;;;;;8.52;5.00;;;12.30;99.90;;;;;;4943421;28;20140;-64
2023/08/11 02:37:44;;;;;;;5.60;4.65;;;12.30;99.90;;;;;;4950315;29;20048;-64
2023/08/11 02:40:11;;;;;;;8.25;4.70;;;12.20;99.90;;;;;;4949881;29;20050;-64
2023/08/11 02:42:42;;;;;;;7.32;5.32;;;12.20;99.90;;;;;;4946537;28;20095;-64
2023/08/11 02:45:10;;;;;;;9.57;5.57;;;12.20;99.90;;;;;;4926377;29;20044;-64
2023/08/11 02:47:39;;;;;;;12.98;5.13;;;12.10;99.90;;;;;;4935381;29;20049;-64
2023/08/11 02:50:06;;;;;;;7.18;4.82;;;12.10;99.90;;;;;;4949149;28;20047;-63
2023/08/11 02:52:34;;;;;;;8.15;4.70;;;12.10;99.90;;;;;;4935170;29;20039;-64
2023/08/11 02:55:03;;;;;;;10.63;5.35;;;12.10;99.90;;;;;;4949323;28;20139;-64
2023/08/11 02:57:31;;;;;;;9.25;5.60;;;12.10;99.90;;;;;;4946274;29;20501;-64
2023/08/11 02:59:58;;;;;;;11.82;5.57;;;12.10;99.90;;;;;;4949439;29;20043;-64
2023/08/11 03:02:24;;;;;;;6.70;5.25;;;12.10;99.90;;;;;;4949448;29;20123;-63
2023/08/11 03:04:52;;;;;;;8.48;5.05;;;12.10;99.90;;;;;;4949361;29;20138;-64
2023/08/11 03:07:19;;;;;;;8.40;5.18;;;12.00;99.90;;;;;;4931235;29;20402;-64
2023/08/11 03:09:46;;;;;;;;;;;12.00;99.90;;;;;;4949980;29;20039;-64
2023/08/11 03:12:13;;;;;;;8.65;4.68;;;12.00;99.90;;;;;;4934744;29;20328;-63
2023/08/11 03:14:41;;;;;;;;;;;12.00;99.90;;;;;;4945978;28;20051;-63
2023/08/11 03:17:10;;;;;;;7.60;4.70;;;12.00;99.90;;;;;;4933490;29;19978;-63
2023/08/11 03:19:37;;;;;;;8.63;4.72;;;11.90;99.90;;;;;;4948991;29;20069;-64
2023/08/11 03:22:04;;;;;;;10.57;5.40;;;11.90;99.90;;;;;;4943842;29;20086;-62
2023/08/11 03:24:32;;;;;;;13.50;5.60;;;11.90;99.90;;;;;;4933155;29;20067;-64
2023/08/11 03:26:59;;;;;;;8.30;5.07;;;11.90;99.90;;;;;;4949700;29;20058;-64
2023/08/11 03:29:26;;;;;;;7.15;5.32;;;11.90;99.90;;;;;;4944857;29;20051;-63
2023/08/11 03:31:55;;;;;;;10.25;5.25;;;11.90;99.90;;;;;;4949418;29;20063;-64
2023/08/11 03:34:27;;;;;;;8.13;4.63;;;11.90;99.90;;;;;;4948463;28;20052;-63
2023/08/11 03:36:58;;;;;;;13.75;5.78;;;11.90;99.90;;;;;;4934469;29;20039;-64
2023/08/11 03:39:25;;;;;;;6.90;4.88;;;11.90;99.90;;;;;;4948353;28;20043;-63
2023/08/11 03:41:52;;;;;;;;;;;11.90;99.90;;;;;;4949837;28;20040;-64
2023/08/11 03:44:20;;;;;;;12.43;5.07;;;11.90;99.90;;;;;;4944800;29;20388;-64
2023/08/11 03:46:48;;;;;;;7.53;4.75;;;11.90;99.90;;;;;;4949069;28;20044;-63
2023/08/11 03:49:17;;;;;;;7.43;5.20;;;11.90;99.90;;;;;;4933920;29;20556;-63
2023/08/11 03:51:44;;;;;;;6.10;4.70;;;11.90;99.90;;;;;;4942569;29;20043;-63
2023/08/11 03:54:10;;;;;;;8.73;4.97;;;11.90;99.90;;;;;;4948733;28;20051;-64
2023/08/11 03:56:37;;;;;;;13.10;5.18;;;11.90;99.90;;;;;;4948641;29;20131;-63
2023/08/11 03:59:04;;;;;;;;;;;11.90;99.90;;;;;;4949276;29;20047;-64
2023/08/11 04:01:32;;;;;;;13.43;4.85;;;12.00;99.90;;;;;;4947236;28;20751;-64
2023/08/11 04:03:58;;;;;;;8.63;5.13;;;11.90;99.90;;;;;;4943527;28;20050;-63
2023/08/11 04:06:32;;;;;;;7.30;5.18;;;11.80;99.90;;;;;;4948402;29;20060;-63
2023/08/11 04:09:00;;;;;;;10.18;5.63;;;11.80;99.90;;;;;;4949138;28;20441;-64
2023/08/11 04:11:28;;;;;;;11.02;6.28;;;11.80;99.90;;;;;;4948660;29;20044;-64
2023/08/11 04:13:54;;;;;;;;;;;11.80;99.90;;;;;;4945359;28;20050;-64
2023/08/11 04:16:21;;;;;;;12.48;5.55;;;11.70;99.90;;;;;;4948670;29;19927;-64
2023/08/11 04:18:48;;;;;;;9.77;5.85;;;11.80;99.90;;;;;;4948655;29;20452;-63
2023/08/11 04:21:15;;;;;;;8.38;5.85;;;11.70;99.90;;;;;;4931390;29;20044;-64
2023/08/11 04:23:42;;;;;;;13.18;5.82;;;11.70;99.90;;;;;;4925529;29;20050;-63
2023/08/11 04:26:10;;;;;;;8.30;6.10;;;11.70;99.90;;;;;;4932835;29;20044;-63
2023/08/11 04:28:38;;;;;;;;;;;11.70;99.90;;;;;;4948909;29;20054;-63
2023/08/11 04:31:09;;;;;;;11.82;5.88;;;11.70;99.90;;;;;;4948765;29;19926;-63
2023/08/11 04:33:37;;;;;;;8.95;5.32;;;11.80;99.90;;;;;;4930841;29;20056;-64
2023/08/11 04:36:04;;;;;;;11.25;5.82;;;11.80;99.90;;;;;;4948341;28;20135;-64
2023/08/11 04:38:31;;;;;;;8.15;5.28;;;11.90;99.90;;;;;;4948087;28;20066;-63
2023/08/11 04:40:58;;;;;;;6.28;5.28;;;11.90;99.90;;;;;;4947105;28;20075;-64
2023/08/11 04:43:25;;;;;;;9.55;5.57;;;11.90;99.90;;;;;;4934213;29;20058;-63
2023/08/11 04:45:54;;;;;;;9.05;5.47;;;12.00;99.90;;;;;;4947829;29;20040;-63
2023/08/11 04:48:21;;;;;;;8.70;5.68;;;12.10;99.90;;;;;;4948326;29;20078;-63
2023/08/11 04:50:52;;;;;;;10.05;6.45;;;12.10;99.90;;;;;;4943588;28;20048;-63
2023/08/11 04:53:20;;;;;;;8.07;4.97;;;12.20;99.90;;;;;;4947736;29;20394;-63
2023/08/11 04:55:48;;;;;;;9.75;5.93;;;12.20;99.90;;;;;;4947571;29;20047;-64
2023/08/11 04:58:14;;;;;;;10.25;5.25;;;12.30;99.90;;;;;;4945014;28;20493;-64
2023/08/11 05:00:42;;;;;;;7.82;5.38;;;12.40;99.90;;;;;;4945999;29;20059;-63
2023/08/11 05:03:09;;;;;;;8.90;5.20;;;12.40;99.90;;;;;;4932479;29;20058;-64
2023/08/11 05:05:36;;;;;;;7.75;5.70;;;12.50;99.90;;;;;;4932963;29;20386;-64
2023/08/11 05:08:04;;;;;;;10.05;5.75;;;12.50;99.90;;;;;;4933757;29;20043;-64
2023/08/11 05:10:30;;;;;;;8.35;5.97;;;12.60;99.90;;;;;;4931721;29;20051;-63
2023/08/11 05:12:58;;;;;;;8.00;5.60;;;12.60;99.90;;;;;;4933658;29;20036;-61
2023/08/11 05:15:25;;;;;;;7.30;5.28;;;12.70;99.90;;;;;;4932939;29;20074;-61
2023/08/11 05:17:52;;;;;;;7.10;5.35;;;12.70;99.90;;;;;;4935364;29;20043;-62
2023/08/11 05:20:19;;;;;;;10.63;5.75;;;12.70;99.90;;;;;;4929793;29;20145;-62
2023/08/11 05:22:47;;;;;;;10.70;5.95;;;12.70;99.90;;;;;;4935105;29;20280;-63
2023/08/11 05:25:14;;;;;;;7.35;5.07;;;12.80;99.90;;;;;;4933993;29;20405;-61
2023/08/11 05:27:41;;;;;;;12.45;6.95;;;12.80;99.90;;;;;;4935684;29;20047;-62
2023/08/11 05:30:08;;;;;;;9.52;6.05;;;12.90;99.90;;;;;;4935523;29;20147;-61
2023/08/11 05:32:35;;;;;;;9.85;6.90;;;12.90;99.90;;;;;;4930299;29;20051;-64
2023/08/11 05:35:02;;;;;;;9.50;6.15;;;13.00;99.90;;;;;;4935096;29;20047;-64
2023/08/11 05:37:29;;;;;;;8.40;6.93;;;13.10;99.90;;;;;;4935201;29;20051;-64
2023/08/11 05:39:56;;;;;;;9.27;6.72;;;13.20;99.90;;;;;;4935209;29;20054;-64
2023/08/11 05:42:23;;;;;;;12.13;7.80;;;13.20;99.90;;;;;;4936072;29;20058;-63
2023/08/11 05:44:50;;;;;;;10.00;7.20;;;13.30;99.90;;;;;;4935201;29;20570;-64
2023/08/11 05:47:17;;;;;;;11.20;7.10;;;13.30;99.90;;;;;;4936703;29;20057;-64
2023/08/11 05:49:44;;;;;;;8.25;6.57;;;13.50;99.90;;;;;;4935405;29;20043;-64
2023/08/11 05:52:11;;;;;;;10.23;7.55;;;13.50;99.90;;;;;;4936638;29;20509;-64
2023/08/11 05:54:37;;;;;;;13.85;7.20;;;13.60;99.90;;;;;;4930071;29;20048;-64
2023/08/11 05:57:04;;;;;;;11.85;7.20;;;13.60;99.90;;;;;;4936308;29;20059;-63
2023/08/11 05:59:32;;;;;;;11.43;6.90;;;13.70;99.90;;;;;;4935094;29;20056;-63
2023/08/11 06:01:58;;;;;;;10.52;6.50;;;13.70;99.90;;;;;;4936002;29;20048;-64
2023/08/11 06:04:25;;;;;;;14.02;7.10;;;13.80;99.90;;;;;;4935999;29;20083;-64
2023/08/11 06:06:52;;;;;;;9.68;6.95;;;13.90;99.90;;;;;;4936422;29;20055;-63
2023/08/11 06:09:19;;;;;;;11.60;6.63;;;14.00;99.90;;;;;;4936317;29;20051;-63
2023/08/11 06:11:45;;;;;;;9.13;6.15;;;14.00;99.90;;;;;;4935820;29;20404;-63
2023/08/11 06:14:13;;;;;;;11.52;6.95;;;14.00;99.90;;;;;;4934880;29;20051;-64
2023/08/11 06:16:40;;;;;;;8.18;6.32;;;14.10;99.90;;;;;;4935727;29;20055;-64
2023/08/11 06:19:06;;;;;;;8.55;6.32;;;14.20;99.90;;;;;;4935910;29;20488;-64
2023/08/11 06:21:33;;;;;;;10.57;6.60;;;14.20;99.90;;;;;;4934701;29;20058;-63
2023/08/11 06:24:00;;;;;;;11.45;6.35;;;14.30;99.90;;;;;;4929970;29;20059;-63
2023/08/11 06:26:27;;;;;;;10.25;6.13;;;14.40;99.90;;;;;;4934665;29;20122;-64
2023/08/11 06:28:53;;;;;;;10.18;6.53;;;14.50;99.90;;;;;;4934973;29;20497;-64
2023/08/11 06:31:20;;;;;;;11.32;7.20;;;14.60;99.90;;;;;;4935425;29;20058;-63
2023/08/11 06:33:47;;;;;;;9.30;6.47;;;14.60;99.90;;;;;;4934371;29;20047;-64
2023/08/11 06:36:14;;;;;;;10.63;6.38;;;14.70;99.90;;;;;;4934298;29;20043;-64
2023/08/11 06:38:41;;;;;;;12.43;6.05;;;14.90;99.90;;;;;;4935264;29;20052;-64
2023/08/11 06:41:07;;;;;;;7.43;5.93;;;15.00;99.90;;;;;;4930621;29;20043;-64
2023/08/11 06:43:34;;;;;;;8.30;6.25;;;15.20;99.90;;;;;;4934614;29;20055;-65
2023/08/11 06:46:01;;;;;;;8.52;5.72;;;15.30;99.90;;;;;;4932284;29;20102;-65
2023/08/11 06:48:28;;;;;;;10.73;6.20;;;15.40;99.90;;;;;;4934835;29;20057;-65
2023/08/11 06:50:56;;;;;;;10.43;6.57;;;15.50;99.90;;;;;;4934647;29;20437;-64
2023/08/11 06:53:23;;;;;;;6.93;5.60;;;15.70;99.90;;;;;;4934189;29;20048;-64
2023/08/11 06:55:51;;;;;;;9.27;5.40;;;15.80;99.90;;;;;;4934213;29;20054;-65
2023/08/11 06:58:18;;;;;;;7.35;5.50;;;16.00;99.90;;;;;;4934526;29;20062;-64
2023/08/11 07:00:44;;;;;;;7.97;5.88;;;16.00;99.90;;;;;;4932409;29;20071;-65
2023/08/11 07:03:11;;;;;;;8.57;5.60;;;16.10;99.90;;;;;;4934379;29;20040;-65
2023/08/11 07:05:38;;;;;;;8.95;5.47;;;16.20;99.90;;;;;;4927855;29;20040;-64
2023/08/11 07:08:05;;;;;;;9.88;5.20;;;16.30;99.90;;;;;;4934798;29;20055;-65
2023/08/11 07:10:32;;;;;;;7.70;5.70;;;16.40;99.90;;;;;;4934504;29;20058;-64
2023/08/11 07:12:59;;;;;;;8.90;5.72;;;16.60;99.90;;;;;;4925163;29;20044;-64
2023/08/11 07:15:26;;;;;;;9.48;5.40;;;16.70;99.90;;;;;;4933535;29;20055;-65
2023/08/11 07:17:53;;;;;;;8.95;5.00;;;16.80;99.90;;;;;;4933971;29;20531;-65
2023/08/11 07:20:20;;;;;;;10.05;5.70;;;16.90;99.90;;;;;;4934240;29;20051;-64
2023/08/11 07:22:47;;;;;;;8.40;5.28;;;17.00;99.90;;;;;;4930430;29;20044;-64
2023/08/11 07:25:14;;;;;;;6.15;5.03;;;17.20;99.90;;;;;;4934497;29;20044;-64
2023/08/11 07:27:40;;;;;;;7.22;5.07;;;17.30;99.90;;;;;;4932687;29;20052;-65
2023/08/11 07:30:09;;;;;;;7.82;5.57;;;17.30;99.90;;;;;;4933274;29;20409;-64
2023/08/11 07:32:36;;;;;;;9.82;5.07;;;17.40;99.90;;;;;;4933125;29;20424;-65
2023/08/11 07:35:03;;;;;;;9.10;5.70;;;17.40;99.90;;;;;;4933813;29;20050;-64
2023/08/11 07:37:30;;;;;;;10.85;5.13;;;17.50;99.90;;;;;;4933972;29;20047;-64
2023/08/11 07:39:56;;;;;;;8.38;5.70;;;17.60;99.90;;;;;;4925625;29;20417;-65
2023/08/11 07:42:23;;;;;;;8.23;5.10;;;17.70;99.90;;;;;;4929294;29;20044;-65
2023/08/11 07:44:50;;;;;;;5.90;5.00;;;17.80;99.90;;;;;;4933054;29;20429;-65
2023/08/11 07:47:17;;;;;;;9.30;5.25;;;17.90;99.90;;;;;;4934012;29;20130;-65
2023/08/11 07:49:43;;;;;;;8.57;4.97;;;18.00;99.90;;;;;;4933513;29;20054;-65
2023/08/11 07:52:10;;;;;;;7.25;4.75;;;18.00;99.90;;;;;;4934108;29;20058;-65
2023/08/11 07:54:37;;;;;;;8.45;5.28;;;18.10;99.90;;;;;;4933568;29;20056;-65
2023/08/11 07:57:04;;;;;;;7.90;4.75;;;18.30;99.90;;;;;;4932803;29;20048;-65
2023/08/11 07:59:31;;;;;;;7.80;4.30;;;18.30;99.90;;;;;;4934163;29;20048;-65
2023/08/11 08:01:59;;;;;;;6.75;5.05;;;18.40;99.90;;;;;;4929914;29;20756;-64
2023/08/11 08:04:26;;;;;;;6.07;4.82;;;18.50;99.90;;;;;;4933186;29;20051;-64
2023/08/11 08:06:52;;;;;;;6.60;4.90;;;18.70;99.90;;;;;;4932059;29;20043;-64
2023/08/11 08:09:19;;;;;;;7.15;4.50;;;18.80;99.90;;;;;;4933586;29;20405;-63
2023/08/11 08:11:47;;;;;;;8.20;4.35;;;19.00;99.90;;;;;;4924529;29;20044;-64
2023/08/11 08:14:14;;;;;;;5.75;4.50;;;19.20;99.90;;;;;;4932121;29;20048;-64
2023/08/11 08:16:41;;;;;;;;;;;19.30;99.90;;;;;;4933085;29;20494;-64
2023/08/11 08:19:10;;;;;;;5.57;4.07;;;19.50;99.90;;;;;;4932930;29;19969;-64
2023/08/11 08:21:38;;;;;;;5.75;4.47;;;19.70;99.90;;;;;;4933233;29;20588;-63
2023/08/11 08:24:07;;;;;;;6.18;4.30;;;19.80;99.90;;;;;;4925374;29;20066;-64
2023/08/11 08:26:35;;;;;;;6.03;3.92;;;19.90;99.90;;;;;;4933473;29;20048;-63
2023/08/11 08:29:03;;;;;;;5.40;3.65;;;20.00;99.90;;;;;;4933224;29;20047;-64
2023/08/11 08:31:30;;;;;;;9.73;4.93;;;20.10;99.90;;;;;;4944036;28;20568;-64
2023/08/11 08:33:57;;;;;;;5.25;4.05;;;20.30;99.90;;;;;;4931792;29;20163;-64
2023/08/11 08:36:24;;;;;;;;;;;20.30;99.90;;;;;;4933533;29;20040;-64
2023/08/11 08:38:50;;;;;;;8.77;3.72;;;20.30;99.90;;;;;;4932132;29;19923;-64
2023/08/11 08:41:20;;;;;;;5.50;4.03;;;20.50;99.90;;;;;;4933395;29;20040;-64
2023/08/11 08:43:47;;;;;;;6.95;4.43;;;20.60;99.90;;;;;;4932195;29;20062;-64
2023/08/11 08:46:15;;;;;;;;;;;20.70;99.90;;;;;;4927485;29;20647;-64
2023/08/11 08:48:46;;;;;;;;;;;20.70;99.90;;;;;;4935416;29;19922;-64
2023/08/11 08:51:14;;;;;;;6.88;4.00;;;20.80;99.90;;;;;;4937360;29;19922;-64
2023/08/11 08:53:41;;;;;;;4.57;4.05;;;21.00;99.90;;;;;;4936331;29;20032;-64
2023/08/11 08:56:08;;;;;;;7.55;4.47;;;21.10;99.90;;;;;;4935010;29;20036;-63
2023/08/11 08:58:35;;;;;;;5.05;4.13;;;21.20;99.90;;;;;;4932718;29;20490;-64
2023/08/11 09:01:03;;;;;;;5.53;4.00;;;21.30;99.90;;;;;;4936302;29;20054;-65
2023/08/11 09:03:33;;;;;;;6.93;4.00;;;21.40;99.90;;;;;;4936241;29;20497;-64
2023/08/11 09:06:00;;;;;;;6.75;4.10;;;21.50;99.90;;;;;;4929369;29;20062;-64
2023/08/11 09:08:31;;;;;;;6.93;4.47;;;21.50;99.90;;;;;;4936997;29;20048;-63
2023/08/11 09:10:58;;;;;;;4.82;3.80;;;21.60;99.90;;;;;;4935401;29;20067;-63
2023/08/11 09:13:26;;;;;;;6.03;4.35;;;21.70;99.90;;;;;;4936363;29;20060;-64
2023/08/11 09:15:53;;;;;;;6.13;4.07;;;21.90;99.90;;;;;;4935659;29;20050;-64
2023/08/11 09:18:22;;;;;;;6.72;4.68;;;22.00;99.90;;;;;;4936739;29;20044;-64
2023/08/11 09:20:49;;;;;;;5.22;3.58;;;22.10;99.90;;;;;;4936330;29;20066;-64
2023/08/11 09:23:17;;;;;;;;;;;22.30;99.90;;;;;;4936667;29;20404;-64
2023/08/11 09:25:43;;;;;;;5.37;4.20;;;22.40;99.90;;;;;;4951481;29;19933;-64
2023/08/11 09:28:10;;;;;;;7.57;4.18;;;22.60;99.90;;;;;;4935477;29;20048;-65
2023/08/11 09:30:37;;;;;;;7.07;4.03;;;22.80;99.90;;;;;;4925561;29;20054;-65
2023/08/11 09:33:08;;;;;;;4.55;3.85;;;22.90;99.90;;;;;;4935868;29;20143;-64
2023/08/11 09:35:35;;;;;;;4.85;3.65;;;22.90;99.90;;;;;;4936144;29;20051;-64
2023/08/11 09:38:03;;;;;;;5.50;3.60;;;22.90;99.90;;;;;;4935646;29;20054;-65
2023/08/11 09:40:32;;;;;;;6.15;3.95;;;23.00;99.90;;;;;;4946765;28;20048;-65
2023/08/11 09:42:59;;;;;;;5.85;4.35;;;23.10;99.90;;;;;;4933719;29;20043;-65
2023/08/11 09:45:26;;;;;;;6.88;3.75;;;23.20;99.90;;;;;;4935722;29;20118;-65
2023/08/11 09:47:52;;;;;;;9.98;4.57;;;23.20;99.90;;;;;;4936263;29;20053;-64
2023/08/11 09:50:20;;;;;;;;;;;23.20;99.90;;;;;;4936158;29;20059;-65
2023/08/11 09:52:47;;;;;;;9.80;4.43;;;23.10;99.90;;;;;;4934967;29;19923;-65
2023/08/11 09:55:15;;;;;;;5.30;4.20;;;23.10;99.90;;;;;;4936023;29;20054;-65
2023/08/11 09:57:43;;;;;;;5.93;3.95;;;23.10;99.90;;;;;;4935592;29;20051;-65
2023/08/11 10:00:14;;;;;;;6.60;3.67;;;23.30;99.90;;;;;;4935210;29;20048;-65
2023/08/11 10:03:05;;;;;;;6.10;3.65;;;23.50;99.90;;;;;;4935866;29;20075;-65
2023/08/11 10:05:38;;;;;;;6.57;3.83;;;23.60;99.90;;;;;;4928656;29;20065;-65
2023/08/11 10:08:06;;;;;;;5.30;3.83;;;23.70;99.90;;;;;;4935622;29;20406;-64
2023/08/11 10:10:35;;;;;;;7.63;3.83;;;23.60;99.90;;;;;;4935138;29;20048;-65
2023/08/11 10:13:08;;;;;;;6.70;4.20;;;23.80;99.90;;;;;;4935243;29;20051;-65
2023/08/11 10:15:36;;;;;;;5.38;3.95;;;24.00;99.90;;;;;;4935253;29;20050;-65
2023/08/11 10:18:04;;;;;;;3.80;3.40;;;24.10;99.90;;;;;;4934928;29;20071;-65
2023/08/11 10:20:31;;;;;;;4.55;3.40;;;24.20;99.90;;;;;;4935452;29;20039;-65
2023/08/11 10:22:59;;;;;;;4.20;3.38;;;24.30;99.90;;;;;;4934980;29;20044;-65
2023/08/11 10:25:26;;;;;;;7.45;3.47;;;24.40;99.90;;;;;;4928393;29;20529;-66
2023/08/11 10:27:54;;;;;;;6.95;3.60;;;24.40;99.90;;;;;;4935381;29;20058;-65
2023/08/11 10:30:22;;;;;;;12.20;3.58;;;24.60;99.90;;;;;;4935116;29;20042;-63
2023/08/11 10:32:56;;;;;;;6.72;3.58;;;24.60;99.90;;;;;;4935249;29;20040;-65
2023/08/11 10:35:33;;;;;;;4.93;3.47;;;24.80;99.90;;;;;;4934553;29;20449;-64
2023/08/11 10:38:00;;;;;;;6.13;3.72;;;24.80;99.90;;;;;;4926958;29;20048;-65
2023/08/11 10:40:35;;;;;;;5.68;4.00;;;24.90;99.90;;;;;;4935108;29;20040;-64
2023/08/11 10:43:04;;;;;;;5.00;3.65;;;25.00;99.90;;;;;;4934031;29;20043;-64
2023/08/11 10:45:32;;;;;;;4.75;3.20;;;25.10;99.90;;;;;;4934636;29;20032;-65
2023/08/11 10:48:05;;;;;;;4.15;3.40;;;25.10;99.90;;;;;;4932075;29;20048;-64
2023/08/11 10:50:33;;;;;;;4.10;3.30;;;25.10;99.90;;;;;;4934814;29;20398;-64
2023/08/11 10:53:19;;;;;;;;;;;25.20;99.90;;;;;;4934648;29;20036;-65
2023/08/11 10:56:02;;;;;;;4.18;3.03;;;25.30;99.90;;;;;;4927684;29;20273;-64
2023/08/11 10:58:30;;;;;;;4.40;3.30;;;25.30;99.90;;;;;;4928286;29;20035;-64
2023/08/11 11:00:58;;;;;;;7.20;3.33;;;25.50;99.90;;;;;;4934092;29;20672;-64
2023/08/11 11:03:25;;;;;;;4.00;3.33;;;25.50;99.90;;;;;;4933444;29;20433;-65
2023/08/11 11:05:52;;;;;;;4.22;3.50;;;25.60;99.90;;;;;;4933687;29;20478;-65
2023/08/11 11:08:19;;;;;;;6.53;3.58;;;25.70;99.90;;;;;;4934016;29;20051;-65
2023/08/11 11:10:46;;;;;;;6.22;3.20;;;25.80;99.90;;;;;;4934534;29;20047;-64
2023/08/11 11:13:17;;;;;;;8.40;3.80;;;25.90;99.90;;;;;;4934504;29;20135;-64
2023/08/11 11:15:44;;;;;;;5.28;3.45;;;25.90;99.90;;;;;;4934819;29;20047;-65
2023/08/11 11:18:11;;;;;;;3.95;3.10;;;25.90;99.90;;;;;;4933341;29;20524;-65
2023/08/11 11:20:38;;;;;;;;;;;25.90;99.90;;;;;;4934877;29;20053;-64
2023/08/11 11:23:05;;;;;;;7.07;3.40;;;26.00;99.90;;;;;;4934353;29;19927;-65
2023/08/11 11:25:32;;;;;;;3.97;3.33;;;26.10;99.90;;;;;;4932454;29;20036;-65
2023/08/11 11:27:59;;;;;;;9.43;3.53;;;26.10;99.90;;;;;;4934351;29;20130;-66
2023/08/11 11:30:26;;;;;;;5.57;3.72;;;26.10;99.90;;;;;;4934288;29;20040;-65
2023/08/11 11:32:53;;;;;;;4.55;3.22;;;26.10;99.90;;;;;;4934183;29;20047;-65
2023/08/11 11:35:22;;;;;;;;;;;26.00;99.90;;;;;;4934275;29;20099;-65
2023/08/11 11:37:48;;;;;;;4.10;2.75;;;26.00;99.90;;;;;;4933248;29;19930;-65
2023/08/11 11:40:16;;;;;;;3.88;2.75;;;26.00;99.90;;;;;;4934003;29;20046;-65
2023/08/11 11:42:43;;;;;;;5.15;3.10;;;26.10;99.90;;;;;;4934225;29;20032;-65
2023/08/11 11:45:10;;;;;;;;;;;26.20;99.90;;;;;;4933171;29;20130;-65
2023/08/11 11:47:37;;;;;;;5.50;3.17;;;26.30;99.90;;;;;;4934429;29;19922;-65
2023/08/11 11:50:09;;;;;;;4.03;3.20;;;26.40;99.90;;;;;;4934384;29;20546;-66
2023/08/11 11:52:36;;;;;;;3.08;2.78;;;26.40;99.90;;;;;;4934246;29;20071;-66
2023/08/11 11:55:05;;;;;;;3.50;3.15;;;26.40;99.90;;;;;;4932276;29;20048;-65
2023/08/11 11:57:33;;;;;;;7.75;3.80;;;26.50;99.90;;;;;;4933032;29;20054;-65
2023/08/11 12:00:03;;;;;;;5.75;3.17;;;26.50;99.90;;;;;;4933851;29;20067;-65
2023/08/11 12:02:40;;;;;;;4.47;3.50;;;26.60;99.90;;;;;;4932844;29;20048;-65
2023/08/11 12:05:08;;;;;;;4.60;3.40;;;26.60;99.90;;;;;;4931770;29;20047;-65
2023/08/11 12:07:36;;;;;;;4.88;3.47;;;26.60;99.90;;;;;;4933926;29;20553;-65
2023/08/11 12:10:04;;;;;;;5.72;3.50;;;26.70;99.90;;;;;;4933357;29;20496;-65
2023/08/11 12:12:32;;;;;;;8.77;3.85;;;26.80;99.90;;;;;;4934732;29;20059;-65
2023/08/11 12:15:05;;;;;;;4.28;3.45;;;26.90;99.90;;;;;;4947983;28;20107;-65
2023/08/11 12:17:35;;;;;;;4.85;3.42;;;26.90;99.90;;;;;;4927047;29;20069;-65
2023/08/11 12:20:04;;;;;;;3.15;2.85;;;27.00;99.90;;;;;;4934208;29;20043;-66
2023/08/11 12:22:31;;;;;;;5.65;3.40;;;27.10;99.90;;;;;;4934255;29;20036;-66
2023/08/11 12:24:58;;;;;;;;;;;27.30;99.90;;;;;;4936715;29;20505;-66
2023/08/11 12:27:25;;;;;;;6.55;3.40;;;27.60;99.90;;;;;;4937157;29;20277;-66
2023/08/11 12:29:52;;;;;;;4.63;3.05;;;27.50;99.90;;;;;;4951905;29;20140;-66
2023/08/11 12:32:19;;;;;;;3.88;3.25;;;27.40;99.90;;;;;;4937000;29;20052;-66
2023/08/11 12:34:45;;;;;;;;;;;27.40;99.90;;;;;;4937300;29;20044;-66
2023/08/11 12:37:14;;;;;;;5.60;3.40;;;27.50;99.90;;;;;;4937543;29;19926;-65
2023/08/11 12:39:41;;;;;;;6.07;3.17;;;27.50;99.90;;;;;;4937756;29;20040;-66
2023/08/11 12:42:09;;;;;;;3.72;3.30;;;27.40;99.90;;;;;;4934419;29;20047;-65
2023/08/11 12:44:38;;;;;;;4.50;3.50;;;27.40;99.90;;;;;;4935837;29;20405;-65
2023/08/11 12:47:05;;;;;;;4.45;3.20;;;27.30;99.90;;;;;;4937540;29;20389;-65
2023/08/11 12:49:32;;;;;;;6.57;3.40;;;27.30;99.90;;;;;;4929689;29;20047;-65
2023/08/11 12:51:59;;;;;;;9.35;3.85;;;27.30;99.90;;;;;;4937278;29;20059;-65
2023/08/11 12:54:26;;;;;;;;;;;27.20;99.90;;;;;;4937629;29;20059;-65